• Join FlightAware (Why Join?)
  • Login
  • US Flag 
02:57PM EDT


 

Airport Tracker/Info


-or-


 

Live Flight TrackerFlight Track Log ✈ SWA543 ✈ 13-Jun-2013 ✈ KBWI - KATL

Flight Track Log - Related Links

Times and Time Zones

All times are in EDT time to prevent confusion due to time zone crossing. See the SWA543 flight status page for this flight to view local times or setup timezone preferences in your user account.

Time Position Orientation Groundspeed Altitude Reporting Facility
EDT Latitude Longitude Course Direction KTS MPH feet Rate Location/Type
07:21AM 39.1500 -76.6500 142° Southeast 172 198 1,200  Level Potomac TRACON
07:22AM 39.1000 -76.6000 142° Southeast 219 252 3,500 2,460 Climbing Potomac TRACON
07:23AM 39.0500 -76.5333 134° Southeast 244 281 6,200 2,520 Climbing Potomac TRACON
07:25AM 38.9250 -76.4189 145° Southeast 298 343 11,300 2,280 Climbing Washington Center
07:26AM 38.8517 -76.4739 210° Southwest 260 299 13,100 1,320 Climbing Washington Center
07:27AM 38.7783 -76.5369 214° Southwest 279 321 14,000 480 Climbing Washington Center
07:28AM 38.7133 -76.5947 215° Southwest 309 356 14,100 1,620 Climbing Washington Center
07:29AM 38.6314 -76.6653 214° Southwest 328 377 17,300 2,520 Climbing Washington Center
07:30AM 38.5517 -76.7253 210° Southwest 341 392 19,100 1,860 Climbing Washington Center
07:31AM 38.4431 -76.7183 177° South 353 406 21,100 1,800 Climbing Washington Center
07:32AM 38.3286 -76.7006 173° South 379 436 22,800 1,620 Climbing Washington Center
07:33AM 38.2058 -76.6778 172° South 394 453 24,400 1,500 Climbing Washington Center
07:34AM 38.0892 -76.6628 174° South 419 482 25,800 1,320 Climbing Washington Center
07:35AM 37.9664 -76.6481 175° South 432 497 27,100 1,380 Climbing Washington Center
07:36AM 37.8472 -76.6594 184° South 438 504 28,700 1,560 Climbing Washington Center
07:37AM 37.7283 -76.6736 185° South 438 504 30,200 1,260 Climbing Washington Center
07:38AM 37.6072 -76.6903 186° South 443 510 31,200 1,080 Climbing Washington Center
07:39AM 37.4839 -76.7042 185° South 443 510 32,400 1,320 Climbing Washington Center
07:40AM 37.3650 -76.7206 186° South 443 510 33,900 780 Climbing Washington Center
07:41AM 37.2417 -76.7397 187° South 448 516 34,000  Climbing Washington Center
07:42AM 37.1206 -76.7614 188° South 448 516 34,000  Level Washington Center
07:43AM 36.9994 -76.7778 186° South 448 516 34,000  Level Washington Center
07:44AM 36.8739 -76.7967 187° South 448 516 34,000  Level Washington Center
07:45AM 36.7547 -76.8156 187° South 443 510 34,000  Level Washington Center
07:46AM 36.6317 -76.8214 182° South 443 510 34,000  Level Washington Center
07:47AM 36.5300 -76.7706 158° South 442 509 34,000  Level Washington Center
07:48AM 36.4158 -76.7122 158° South 442 509 34,000  Level Washington Center
07:49AM 36.3058 -76.6539 157° South 442 509 34,000  Level Washington Center
07:50AM 36.1894 -76.5958 158° South 442 509 34,000  Level Washington Center
07:51AM 36.0750 -76.5378 158° South 448 516 34,000  Level Washington Center
07:53AM 35.8783 -76.6250 200° South 372 428 34,000  Level Washington Center
07:54AM 35.8003 -76.7264 227° Southwest 384 442 34,000  Level Washington Center
07:55AM 35.7156 -76.8278 224° Southwest 406 467 34,000  Level Washington Center
07:56AM 35.6394 -76.9389 230° Southwest 418 481 34,000  Level Washington Center
07:57AM 35.5525 -77.0550 227° Southwest 423 487 34,000  Level Washington Center
07:58AM 35.4697 -77.1656 227° Southwest 429 494 34,000  Level Washington Center
07:59AM 35.3847 -77.2708 225° Southwest 436 502 34,000  Level Washington Center
08:00AM 35.3019 -77.3811 227° Southwest 442 509 34,000 -60 Level Washington Center
08:01AM 35.2231 -77.4889 228° Southwest 437 503 33,900  Descending Washington Center
08:02AM 35.1378 -77.5961 226° Southwest 437 503 34,000  Climbing Washington Center
08:03AM 35.0567 -77.7006 227° Southwest 437 503 34,000  Level Washington Center
08:04AM 34.9778 -77.8025 227° Southwest 431 496 34,000  Level Washington Center
08:05AM 34.8964 -77.9117 228° Southwest 431 496 34,000  Level Washington Center
08:06AM 34.8128 -78.0131 225° Southwest 431 496 34,000  Level Washington Center
08:07AM 34.6867 -78.1711 226° Southwest 431 496 34,000  Level Jacksonville Center
08:08AM 34.6053 -78.2792 228° Southwest 431 496 34,000  Level Jacksonville Center
08:09AM 34.5214 -78.3844 226° Southwest 431 496 34,000  Level Jacksonville Center
08:10AM 34.4394 -78.4869 226° Southwest 431 496 34,000  Level Jacksonville Center
08:11AM 34.3575 -78.5892 226° Southwest 431 496 34,000  Level Jacksonville Center
08:12AM 34.2972 -78.7128 239° Southwest 431 496 34,000 -180 Level Jacksonville Center
08:13AM 34.2872 -78.8564 265° West 419 482 33,700 -660 Descending Jacksonville Center
08:14AM 34.2769 -79.0003 265° West 424 488 32,700 -900 Descending Jacksonville Center
08:15AM 34.2669 -79.1489 265° West 436 502 32,000 -360 Descending Jacksonville Center
08:16AM 34.2567 -79.2925 265° West 436 502 32,000  Level Jacksonville Center
08:17AM 34.2442 -79.4486 265° West 436 502 32,000  Level Jacksonville Center
08:18AM 34.2392 -79.5719 267° West 431 496 32,000  Level Jacksonville Center
08:19AM 34.2219 -79.7108 262° West 424 488 32,000  Level Jacksonville Center
08:20AM 34.1836 -79.8528 252° West 424 488 32,000  Level Jacksonville Center
08:21AM 34.1414 -80.0072 252° West 446 513 32,000 -60 Level Jacksonville Center
08:22AM 34.1050 -80.1489 253° West 445 512 31,900  Descending Jacksonville Center
08:23AM 34.0683 -80.2878 252° West 445 512 32,000  Climbing Jacksonville Center
08:24AM 34.0314 -80.4219 252° West 440 506 32,000  Level Jacksonville Center
08:25AM 33.9944 -80.5606 252° West 435 501 32,000  Level Jacksonville Center
08:26AM 33.9572 -80.6967 252° West 435 501 32,000  Level Jacksonville Center
08:27AM 33.9197 -80.8328 252° West 428 493 32,000  Level Jacksonville Center
08:28AM 33.8822 -80.9689 252° West 428 493 32,000  Level Jacksonville Center
08:29AM 33.8467 -81.0997 252° West 428 493 32,000  Level Jacksonville Center
08:30AM 33.8067 -81.2331 250° West 423 487 32,000  Level Jacksonville Center
08:31AM 33.7667 -81.3636 250° West 428 493 32,000  Level Jacksonville Center
08:32AM 33.7264 -81.4992 250° West 428 493 32,000  Level Jacksonville Center
08:33AM 33.6861 -81.6319 250° West 428 493 32,000  Level Jacksonville Center
08:34AM 33.6456 -81.7625 250° West 428 493 32,000  Level Jacksonville Center
08:35AM 33.6028 -81.9189 252° West 418 481 32,000  Level Atlanta Center
08:36AM 33.5758 -82.0542 257° West 418 481 32,000 -360 Level Atlanta Center
08:37AM 33.5467 -82.1944 256° West 423 487 31,300 -780 Descending Atlanta Center
08:38AM 33.5175 -82.3394 256° West 441 507 30,500 -1,020 Descending Atlanta Center
08:39AM 33.4922 -82.4769 258° West 434 499 29,300 -1,140 Descending Atlanta Center
08:40AM 33.4603 -82.6169 255° West 434 499 28,300 -1,140 Descending Atlanta Center
08:41AM 33.4347 -82.7594 258° West 439 505 27,100 -1,020 Descending Atlanta Center
08:42AM 33.4069 -82.8892 256° West 439 505 26,300 -900 Descending Atlanta Center
08:43AM 33.3789 -83.0314 257° West 439 505 25,400 -1,320 Descending Atlanta Center
08:44AM 33.3486 -83.1758 256° West 439 505 23,700 3,300 Descending Atlanta Center
08:45AM 33.3161 -83.3181 255° West 446 513 32,000 -3,060 Climbing Atlanta Center
08:46AM 33.2897 -83.4547 257° West 438 504 17,600 -8,640 Descending Atlanta Center
08:47AM 33.2611 -83.5917 256° West 416 479 14,800 -2,580 Descending Atlanta Center
08:48AM 33.2364 -83.7158 257° West 392 451 12,500 -1,680 Descending Atlanta Center
08:49AM 33.2167 -83.7833 251° West 344 396 12,100 -840 Descending Atlanta TRACON
08:50AM 33.2500 -83.8667 296° West 295 339 11,200 -1,020 Descending Atlanta TRACON
08:50AM 33.2722 -83.8947 313° West 283 326 10,700 -1,260 Descending Atlanta Center
08:51AM 33.3392 -83.9419 329° Northwest 272 313 9,500 -1,440 Descending Atlanta Center
08:52AM 33.4186 -83.9617 348° North 278 320 7,900 -960 Descending Atlanta Center
08:53AM 33.4978 -83.9764 351° North 286 329 7,600 -600 Descending Atlanta Center
08:54AM 33.5708 -83.9989 346° North 281 323 6,800 -900 Descending Atlanta Center
08:55AM 33.6086 -84.0711 302° West 252 290 5,900 -780 Descending Atlanta Center
08:56AM 33.6333 -84.1333 296° West 233 268 5,500 -780 Descending Atlanta TRACON
08:57AM 33.6333 -84.1833 270° West 207 238 4,700 -960 Descending Atlanta TRACON
08:58AM 33.6333 -84.2500 270° West 199 229 3,800 -1,080 Descending Atlanta TRACON
08:59AM 33.6333 -84.3167 270° West 198 228 2,700 -900 Descending Atlanta TRACON
09:00AM 33.6333 -84.3667 270° West 138 159 1,900 -720 Descending Atlanta TRACON
09:02AM 33.6367 -84.4279 256° West  Level Estimated
09:09AM 33.6367 -84.4279 64° Northeast  Level Estimated
09:10AM 33.6367 -84.4279 64° Northeast  Level Estimated